Time;durP1;ratioP1;P1;durP2;ratioP2;P2;SDS_P1;SDS_P2;PMS_P1;PMS_P2;Temp;Humidity;BMP_temperature;BMP_pressure;BME280_temperature;BME280_humidity;BME280_pressure;Samples;Min_cycle;Max_cycle;Signal;HPM_P1;HPM_P2
2022/09/12 00:01:42;;;;;;;26.00;18.52;;;;;;;17.72;95.44;101792.88;5009010;28;20042;-70
2022/09/12 00:04:09;;;;;;;23.45;18.98;;;;;;;17.72;95.37;101799.06;4990140;28;20049;-70
2022/09/12 00:06:35;;;;;;;24.70;18.85;;;;;;;17.71;95.36;101792.03;5008064;28;20041;-70
2022/09/12 00:09:05;;;;;;;26.13;17.92;;;;;;;17.72;95.67;101793.75;5007590;28;20026;-69
2022/09/12 00:11:30;;;;;;;23.23;19.33;;;;;;;17.74;95.72;101786.56;4990917;28;20041;-69
2022/09/12 00:13:58;;;;;;;24.30;17.58;;;;;;;17.73;95.17;101794.63;5007730;28;20026;-70
2022/09/12 00:16:25;;;;;;;21.23;17.48;;;;;;;17.71;95.18;101792.03;5008141;28;20036;-70
2022/09/12 00:18:52;;;;;;;23.10;16.80;;;;;;;17.73;95.30;101786.63;5007803;28;20654;-70
2022/09/12 00:21:18;;;;;;;22.75;17.60;;;;;;;17.67;95.11;101791.31;5007672;28;20034;-69
2022/09/12 00:23:45;;;;;;;21.67;17.58;;;;;;;17.72;95.03;101785.75;4990951;28;20061;-68
2022/09/12 00:26:10;;;;;;;21.88;16.85;;;;;;;17.67;95.14;101785.97;5007570;28;20076;-70
2022/09/12 00:28:37;;;;;;;25.15;18.52;;;;;;;17.70;95.19;101784.09;5008242;28;20026;-68
2022/09/12 00:31:11;;;;;;;24.92;18.08;;;;;;;17.75;95.37;101792.72;5006895;28;20022;-71
2022/09/12 00:33:37;;;;;;;19.88;15.90;;;;;;;17.72;95.16;101783.09;5007586;28;20029;-70
2022/09/12 00:36:07;;;;;;;19.27;16.08;;;;;;;17.72;95.04;101783.09;5006574;28;20384;-70
2022/09/12 00:38:34;;;;;;;21.17;15.95;;;;;;;17.74;94.42;101780.34;5007854;28;20041;-68
2022/09/12 00:41:00;;;;;;;21.45;16.20;;;;;;;17.81;94.97;101776.44;5007520;28;20025;-69
2022/09/12 00:43:37;;;;;;;18.90;15.15;;;;;;;17.79;94.51;101783.66;5007746;28;20385;-69
2022/09/12 00:46:10;;;;;;;19.95;15.30;;;;;;;17.93;93.63;101770.50;5007194;28;20021;-69
2022/09/12 00:48:43;;;;;;;18.63;15.65;;;;;;;17.91;93.13;101776.84;4990642;28;20044;-71
2022/09/12 00:51:09;;;;;;;20.70;17.60;;;;;;;17.91;92.85;101769.69;4989104;28;20044;-68
2022/09/12 00:53:34;;;;;;;21.55;15.20;;;;;;;17.96;92.98;101766.81;5007954;28;20038;-68
2022/09/12 00:55:59;;;;;;;18.95;14.95;;;;;;;17.98;91.95;101772.06;5007075;28;20113;-70
2022/09/12 00:58:29;;;;;;;20.80;15.80;;;;;;;17.96;91.86;101771.25;5008435;28;20483;-68
2022/09/12 01:00:56;;;;;;;20.80;16.90;;;;;;;18.02;91.13;101773.63;4989883;28;20048;-68
2022/09/12 01:03:22;;;;;;;18.95;16.13;;;;;;;17.97;90.70;101765.84;4989771;28;20472;-68
2022/09/12 01:05:56;;;;;;;20.60;14.90;;;;;;;18.01;90.65;101759.44;4989589;28;20144;-69
2022/09/12 01:08:23;;;;;;;17.67;14.60;;;;;;;17.96;90.70;101758.81;5007356;28;20117;-67
2022/09/12 01:10:49;;;;;;;21.83;15.98;;;;;;;17.87;90.67;101760.13;4989961;28;20057;-66
2022/09/12 01:13:14;;;;;;;20.42;16.55;;;;;;;17.89;90.34;101758.28;5005613;28;20064;-69
2022/09/12 01:15:40;;;;;;;17.88;14.88;;;;;;;17.90;90.51;101749.31;5007346;28;20129;-69
2022/09/12 01:18:22;;;;;;;17.60;13.98;;;;;;;17.96;90.74;101748.16;5006837;28;20502;-65
2022/09/12 01:20:52;;;;;;;22.70;15.48;;;;;;;17.94;90.41;101752.69;5007167;28;20041;-68
2022/09/12 01:23:28;;;;;;;20.17;14.30;;;;;;;17.88;90.41;101750.34;5007293;28;20116;-69
2022/09/12 01:26:20;;;;;;;19.40;15.00;;;;;;;17.89;90.55;101746.72;5007800;28;20105;-69
2022/09/12 01:29:04;;;;;;;18.10;15.23;;;;;;;17.88;90.74;101748.53;4989784;28;20041;-68
2022/09/12 01:32:08;;;;;;;22.98;15.40;;;;;;;17.81;90.22;101741.78;5010029;28;20037;-70
2022/09/12 01:34:53;;;;;;;20.42;15.73;;;;;;;17.77;90.37;101748.22;5008979;28;20050;-70
2022/09/12 01:37:27;;;;;;;18.98;15.85;;;;;;;17.75;90.28;101750.97;4992832;28;20026;-66
2022/09/12 01:40:04;;;;;;;20.98;15.52;;;;;;;17.70;90.22;101757.47;4992425;28;20170;-69
2022/09/12 01:42:45;;;;;;;20.70;16.17;;;;;;;17.66;90.50;101746.94;5010770;28;20034;-69
2022/09/12 01:45:17;;;;;;;22.02;16.85;;;;;;;17.55;91.02;101747.47;5009829;28;20084;-68
2022/09/12 01:47:46;;;;;;;20.38;16.05;;;;;;;17.52;91.13;101739.63;5010357;28;20030;-70
2022/09/12 01:50:27;;;;;;;20.65;15.90;;;;;;;17.48;91.50;101739.84;4993075;28;20408;-69
2022/09/12 01:53:13;;;;;;;18.67;15.52;;;;;;;17.48;91.40;101734.53;4993064;28;20022;-65
2022/09/12 01:55:45;;;;;;;20.83;16.85;;;;;;;17.52;91.25;101733.44;4990000;28;20161;-68
2022/09/12 01:58:25;;;;;;;21.88;16.02;;;;;;;17.45;91.82;101726.72;4974395;28;20026;-69
2022/09/12 02:01:08;;;;;;;20.65;16.17;;;;;;;17.40;92.11;101724.25;4993693;28;20042;-71
2022/09/12 02:03:39;;;;;;;22.65;17.58;;;;;;;17.38;92.59;101710.16;4992166;28;20026;-69
2022/09/12 02:06:14;;;;;;;23.27;16.25;;;;;;;17.40;92.62;101710.94;4992619;28;20076;-69
2022/09/12 02:08:44;;;;;;;22.70;16.02;;;;;;;17.48;92.52;101708.75;4994746;28;20530;-70
2022/09/12 02:11:10;;;;;;;19.60;15.30;;;;;;;17.42;92.51;101707.25;5013563;28;20492;-69
2022/09/12 02:13:59;;;;;;;22.85;17.67;;;;;;;17.54;92.18;101694.25;5010659;28;20104;-68
2022/09/12 02:16:28;;;;;;;;;;;;;;;17.53;91.33;101712.06;4993668;28;20030;-67
2022/09/12 02:18:56;;;;;;;21.30;15.43;;;;;;;17.53;91.05;101703.19;5009381;28;19913;-68
2022/09/12 02:21:23;;;;;;;22.80;16.27;;;;;;;17.46;91.64;101701.78;5010296;28;20173;-68
2022/09/12 02:23:53;;;;;;;19.85;16.67;;;;;;;17.47;91.73;101700.84;4991760;28;20446;-65
2022/09/12 02:26:23;;;;;;;22.27;16.88;;;;;;;17.43;91.62;101706.31;4993125;28;20040;-68
2022/09/12 02:28:49;;;;;;;27.27;17.38;;;;;;;17.47;90.96;101703.50;4992853;28;20034;-66
2022/09/12 02:31:35;;;;;;;20.02;16.05;;;;;;;17.40;91.47;101698.47;4991927;28;20029;-71
2022/09/12 02:34:20;;;;;;;21.98;17.33;;;;;;;17.40;91.54;101700.28;5009824;28;20030;-69
2022/09/12 02:37:02;;;;;;;22.88;17.02;;;;;;;17.45;91.65;101700.06;5010477;28;20080;-70
2022/09/12 02:39:27;;;;;;;20.58;15.95;;;;;;;17.42;91.15;101688.59;4991258;28;20026;-71
2022/09/12 02:41:58;;;;;;;22.38;16.15;;;;;;;17.47;91.01;101690.19;5010161;28;20037;-70
2022/09/12 02:44:24;;;;;;;21.30;16.48;;;;;;;17.47;91.11;101690.19;4991312;28;20030;-69
2022/09/12 02:46:54;;;;;;;20.17;15.98;;;;;;;17.51;91.20;101687.28;5009356;28;20483;-68
2022/09/12 02:49:20;;;;;;;20.98;16.48;;;;;;;17.52;91.54;101691.66;4991232;28;20030;-65
2022/09/12 02:51:46;;;;;;;21.65;15.77;;;;;;;17.50;91.08;101687.38;4992513;28;20111;-69
2022/09/12 02:54:14;;;;;;;19.02;15.23;;;;;;;17.53;91.39;101684.53;5009441;28;20044;-67
2022/09/12 02:56:41;;;;;;;19.45;15.35;;;;;;;17.54;91.99;101681.81;4992180;28;20034;-66
2022/09/12 02:59:08;;;;;;;22.80;16.38;;;;;;;17.59;91.29;101681.56;5009743;28;20038;-65
2022/09/12 03:01:51;;;;;;;21.38;16.00;;;;;;;17.59;91.47;101681.56;4991297;28;20389;-69
2022/09/12 03:04:32;;;;;;;22.63;17.20;;;;;;;17.69;91.41;101681.97;4992053;28;20038;-69
2022/09/12 03:07:22;;;;;;;20.30;15.43;;;;;;;17.76;90.85;101682.53;4991478;28;20055;-68
2022/09/12 03:10:08;;;;;;;19.58;14.10;;;;;;;17.84;90.71;101672.31;5009189;28;20064;-67
2022/09/12 03:12:48;;;;;;;24.67;17.50;;;;;;;17.75;91.17;101667.44;4991347;28;20088;-68
2022/09/12 03:15:49;;;;;;;22.63;16.63;;;;;;;17.75;90.89;101664.78;4991115;28;20300;-70
2022/09/12 03:18:26;;;;;;;20.73;16.17;;;;;;;17.78;90.83;101672.63;4948168;28;20031;-72
2022/09/12 03:21:06;;;;;;;21.55;16.27;;;;;;;17.77;91.58;101657.59;5000248;28;20042;-67
2022/09/12 03:23:50;;;;;;;21.42;16.80;;;;;;;17.76;90.99;101653.22;4990055;28;20041;-69
2022/09/12 03:26:18;;;;;;;27.67;16.77;;;;;;;17.90;90.81;101652.47;5009557;28;20105;-68
2022/09/12 03:28:45;;;;;;;20.13;16.05;;;;;;;17.90;91.01;101652.47;5008884;28;20030;-71
2022/09/12 03:31:15;;;;;;;22.92;15.82;;;;;;;17.96;90.70;101646.81;4991733;28;20038;-69
2022/09/12 03:33:41;;;;;;;22.02;15.43;;;;;;;18.08;90.33;101650.66;5007819;28;20038;-70
2022/09/12 03:36:14;;;;;;;20.08;15.60;;;;;;;18.10;89.62;101646.16;4990769;28;20071;-70
2022/09/12 03:38:39;;;;;;;20.95;15.00;;;;;;;18.11;89.59;101644.31;4989375;28;20049;-71
2022/09/12 03:41:05;;;;;;;19.85;16.02;;;;;;;18.09;89.45;101651.53;4991584;28;20561;-68
2022/09/12 03:43:30;;;;;;;18.65;15.35;;;;;;;18.09;89.37;101655.03;5020555;28;20036;-70
2022/09/12 03:45:55;;;;;;;21.60;15.18;;;;;;;18.07;89.46;101648.94;5009242;28;20101;-70
2022/09/12 03:48:21;;;;;;;22.42;14.98;;;;;;;18.05;89.24;101650.81;5008001;28;20064;-68
2022/09/12 03:50:46;;;;;;;21.17;16.00;;;;;;;18.06;89.48;101653.41;5008441;28;20034;-70
2022/09/12 03:53:11;;;;;;;20.55;14.90;;;;;;;18.01;89.61;101650.13;5008434;28;20034;-70
2022/09/12 03:55:37;;;;;;;21.58;14.90;;;;;;;18.09;89.58;101647.03;5006001;28;20069;-65
2022/09/12 03:58:03;;;;;;;22.98;15.48;;;;;;;18.10;88.60;101640.81;4990980;28;20026;-67
2022/09/12 04:00:28;;;;;;;21.27;15.25;;;;;;;18.10;88.82;101645.25;5008678;28;20584;-67
2022/09/12 04:02:55;;;;;;;23.40;15.70;;;;;;;18.09;88.50;101647.03;5008669;28;20033;-67
2022/09/12 04:05:21;;;;;;;21.70;14.98;;;;;;;18.13;88.94;101651.31;4990464;28;20041;-67
2022/09/12 04:07:46;;;;;;;21.05;15.18;;;;;;;18.18;88.32;101638.59;4991897;28;20464;-67
2022/09/12 04:10:12;;;;;;;20.60;16.10;;;;;;;18.08;88.62;101639.97;5008711;28;20123;-69
2022/09/12 04:12:38;;;;;;;23.45;16.25;;;;;;;18.08;88.72;101639.13;5008928;28;20041;-68
2022/09/12 04:15:04;;;;;;;19.15;15.48;;;;;;;17.97;88.72;101642.38;5008735;28;20028;-68
2022/09/12 04:17:30;;;;;;;21.38;16.13;;;;;;;17.99;88.96;101645.78;5008362;28;20073;-68
2022/09/12 04:19:55;;;;;;;21.67;16.10;;;;;;;17.97;88.52;101643.22;5009009;28;20057;-68
2022/09/12 04:22:21;;;;;;;26.55;18.17;;;;;;;17.85;89.04;101641.22;5007839;28;20034;-68
2022/09/12 04:24:46;;;;;;;21.30;15.85;;;;;;;17.85;89.32;101636.72;5009138;28;20065;-68
2022/09/12 04:27:11;;;;;;;22.63;16.10;;;;;;;17.80;89.08;101636.97;5008547;28;20101;-67
2022/09/12 04:29:37;;;;;;;24.42;17.08;;;;;;;17.75;89.48;101638.13;5008568;28;20026;-67
2022/09/12 04:32:03;;;;;;;23.15;16.65;;;;;;;17.74;89.66;101644.41;5008442;28;20028;-67
2022/09/12 04:34:30;;;;;;;23.90;16.67;;;;;;;17.71;89.22;101647.25;5008379;28;20037;-64
2022/09/12 04:36:55;;;;;;;25.42;16.65;;;;;;;17.66;89.75;101645.69;5008062;28;20109;-64
2022/09/12 04:39:20;;;;;;;23.08;16.02;;;;;;;17.63;89.74;101639.63;5008324;28;20172;-66
2022/09/12 04:41:46;;;;;;;26.27;15.93;;;;;;;17.54;89.86;101638.31;4985260;28;20498;-67
2022/09/12 04:44:13;;;;;;;22.10;16.90;;;;;;;17.50;90.33;101639.41;5007633;28;20046;-66
2022/09/12 04:46:41;;;;;;;22.98;17.23;;;;;;;17.41;90.93;101638.06;5008118;28;20526;-67
2022/09/12 04:49:07;;;;;;;23.17;17.27;;;;;;;17.37;90.67;101639.16;5008678;28;20040;-67
2022/09/12 04:51:34;;;;;;;26.17;18.77;;;;;;;17.29;91.45;101635.09;5006575;28;20105;-67
2022/09/12 04:54:06;;;;;;;25.48;18.05;;;;;;;17.30;91.21;101646.59;5009015;28;20036;-66
2022/09/12 04:56:33;;;;;;;31.73;19.38;;;;;;;17.22;91.64;101640.78;5025971;28;20103;-67
2022/09/12 04:58:59;;;;;;;28.38;18.80;;;;;;;17.16;91.85;101645.47;5007569;28;20027;-68
2022/09/12 05:01:26;;;;;;;21.83;16.70;;;;;;;17.16;92.13;101636.63;5022669;28;20049;-68
2022/09/12 05:03:52;;;;;;;24.52;18.80;;;;;;;17.10;92.33;101643.09;5026377;28;20029;-67
2022/09/12 05:06:23;;;;;;;25.13;17.90;;;;;;;17.10;92.21;101631.59;5029619;28;20072;-67
2022/09/12 05:08:49;;;;;;;26.70;19.13;;;;;;;17.13;91.94;101637.63;5012768;28;20015;-64
2022/09/12 05:11:22;;;;;;;27.17;18.75;;;;;;;17.11;92.19;101643.97;5012514;28;20029;-69
2022/09/12 05:13:48;;;;;;;27.52;19.92;;;;;;;17.08;92.17;101650.31;5012562;28;20678;-65
2022/09/12 05:16:15;;;;;;;30.63;20.38;;;;;;;17.04;92.28;101648.72;5012524;28;20109;-65
2022/09/12 05:18:40;;;;;;;28.33;20.20;;;;;;;16.99;92.62;101640.06;4993816;28;20384;-67
2022/09/12 05:21:08;;;;;;;30.42;20.90;;;;;;;17.00;92.99;101645.31;4994118;28;20026;-67
2022/09/12 05:23:34;;;;;;;30.20;19.75;;;;;;;17.08;92.54;101644.13;5010393;28;20076;-67
2022/09/12 05:26:00;;;;;;;31.85;20.52;;;;;;;17.01;92.64;101632.88;5012555;28;20025;-67
2022/09/12 05:28:31;;;;;;;35.35;20.83;;;;;;;17.00;93.07;101637.34;5011238;28;20030;-66
2022/09/12 05:31:01;;;;;;;33.35;22.05;;;;;;;17.02;92.86;101631.94;5010806;28;20396;-67
2022/09/12 05:33:27;;;;;;;30.25;22.02;;;;;;;17.01;92.74;101624.91;5011451;28;20113;-67
2022/09/12 05:35:52;;;;;;;30.90;21.17;;;;;;;17.02;93.22;101626.63;5009130;28;20176;-65
2022/09/12 05:38:17;;;;;;;30.90;21.27;;;;;;;17.04;92.98;101614.09;5011147;28;20032;-65
2022/09/12 05:40:43;;;;;;;32.03;21.00;;;;;;;17.08;93.07;101618.38;5010709;28;20108;-68
2022/09/12 05:43:09;;;;;;;29.95;20.83;;;;;;;17.15;92.94;101613.59;5010984;28;20069;-69
2022/09/12 05:45:34;;;;;;;29.15;20.85;;;;;;;17.16;93.06;101612.66;5015837;28;20025;-68
2022/09/12 05:48:01;;;;;;;38.45;23.02;;;;;;;17.17;92.13;101611.72;5031322;28;20440;-69
2022/09/12 05:50:26;;;;;;;35.33;22.58;;;;;;;17.14;92.11;101610.09;5008391;28;20033;-69
2022/09/12 05:52:53;;;;;;;35.20;21.98;;;;;;;17.16;92.11;101618.84;5030861;28;20522;-68
2022/09/12 05:55:19;;;;;;;30.40;20.58;;;;;;;17.17;92.16;101615.25;5028078;28;20032;-67
2022/09/12 05:57:45;;;;;;;38.42;21.50;;;;;;;17.16;92.28;101621.50;5027710;28;20037;-65
2022/09/12 06:00:11;;;;;;;32.75;22.90;;;;;;;17.23;92.17;101624.75;5030432;28;20140;-68
2022/09/12 06:02:37;;;;;;;30.85;20.33;;;;;;;17.21;92.19;101629.28;5022456;28;20481;-67
2022/09/12 06:05:02;;;;;;;32.33;21.83;;;;;;;17.18;92.27;101627.63;5010498;28;20134;-67
2022/09/12 06:07:28;;;;;;;35.53;23.48;;;;;;;17.26;92.11;101631.72;5010039;28;20260;-69
2022/09/12 06:09:53;;;;;;;30.10;20.75;;;;;;;17.31;92.52;101632.34;5010301;28;20058;-67
2022/09/12 06:12:19;;;;;;;31.13;19.70;;;;;;;17.36;92.50;101626.78;5010329;28;20578;-67
2022/09/12 06:14:44;;;;;;;30.00;20.02;;;;;;;17.38;92.22;101625.78;5008750;28;20061;-66
2022/09/12 06:17:09;;;;;;;25.85;19.40;;;;;;;17.45;92.36;101626.31;5008955;28;20034;-67
2022/09/12 06:19:35;;;;;;;33.42;20.40;;;;;;;17.53;92.30;101626.81;5011246;28;20022;-67
2022/09/12 06:22:00;;;;;;;30.50;21.63;;;;;;;17.58;92.10;101631.03;4998769;28;20034;-65
2022/09/12 06:24:26;;;;;;;33.22;21.85;;;;;;;17.65;92.07;101629.78;4999262;28;20076;-66
2022/09/12 06:26:51;;;;;;;32.30;20.63;;;;;;;17.88;91.00;101617.91;4993743;28;20092;-69
2022/09/12 06:29:18;;;;;;;32.83;19.95;;;;;;;17.92;91.19;101603.50;5002515;28;20022;-67
2022/09/12 06:31:44;;;;;;;28.38;20.40;;;;;;;17.99;89.85;101604.00;5009769;28;20472;-68
2022/09/12 06:34:11;;;;;;;25.90;19.48;;;;;;;18.11;89.36;101618.53;4991427;28;20484;-73
2022/09/12 06:36:39;;;;;;;30.42;20.17;;;;;;;18.24;88.59;101610.72;5008591;28;20022;-70
2022/09/12 06:39:06;;;;;;;26.85;18.77;;;;;;;18.32;88.09;101615.63;5004563;28;20080;-69
2022/09/12 06:41:32;;;;;;;26.70;19.85;;;;;;;18.44;87.25;101612.31;5010060;28;20025;-76
2022/09/12 06:43:58;;;;;;;23.63;18.15;;;;;;;18.47;87.76;101613.94;5011230;28;20045;-69
2022/09/12 06:46:24;;;;;;;28.50;18.55;;;;;;;18.59;87.51;101614.19;5009464;28;20045;-73
2022/09/12 06:48:50;;;;;;;22.42;16.63;;;;;;;18.74;86.67;101621.34;5009655;28;20457;-65
2022/09/12 06:51:17;;;;;;;24.90;16.98;;;;;;;18.84;86.27;101611.00;5009645;28;20373;-73
2022/09/12 06:53:43;;;;;;;26.00;16.30;;;;;;;18.90;86.08;101624.00;5014525;28;20017;-65
2022/09/12 06:56:20;;;;;;;28.50;18.77;;;;;;;19.03;85.24;101609.97;5017306;28;20172;-65
2022/09/12 06:58:46;;;;;;;27.65;17.58;;;;;;;19.04;84.90;101622.34;5009902;28;20041;-67
2022/09/12 07:01:16;;;;;;;27.17;17.80;;;;;;;18.99;84.97;101625.28;5008100;28;20048;-66
2022/09/12 07:03:43;;;;;;;26.27;17.98;;;;;;;19.08;85.13;101625.75;5008741;28;20388;-66
2022/09/12 07:06:14;;;;;;;33.03;20.80;;;;;;;19.10;84.95;101621.16;4991228;28;20041;-67
2022/09/12 07:08:40;;;;;;;29.88;20.52;;;;;;;19.03;84.60;101625.97;5008497;28;20092;-65
2022/09/12 07:11:17;;;;;;;24.73;17.40;;;;;;;19.15;84.42;101625.28;5009080;28;20030;-65
2022/09/12 07:13:44;;;;;;;28.63;18.33;;;;;;;19.12;84.69;101632.63;4989067;28;20391;-66
2022/09/12 07:16:09;;;;;;;29.52;20.08;;;;;;;19.17;84.21;101626.06;5007883;28;20536;-66
2022/09/12 07:18:37;;;;;;;29.30;19.63;;;;;;;19.19;84.26;101629.53;5009011;28;20029;-66
2022/09/12 07:21:03;;;;;;;25.13;17.42;;;;;;;19.24;84.58;101633.72;5007903;28;20109;-67
2022/09/12 07:23:29;;;;;;;26.23;18.83;;;;;;;19.15;85.48;101641.31;5008258;28;20042;-66
2022/09/12 07:25:56;;;;;;;28.58;20.27;;;;;;;19.22;84.44;101631.16;5009572;28;20041;-67
2022/09/12 07:28:32;;;;;;;28.25;19.35;;;;;;;19.40;85.03;101631.00;5007624;28;20026;-66
2022/09/12 07:30:58;;;;;;;30.33;20.88;;;;;;;19.45;84.21;101631.63;5008603;28;20439;-67
2022/09/12 07:33:26;;;;;;;24.08;17.40;;;;;;;19.59;83.75;101630.78;4991460;28;20028;-67
2022/09/12 07:35:53;;;;;;;28.23;20.63;;;;;;;19.56;83.08;101628.28;5007750;28;20053;-66
2022/09/12 07:38:19;;;;;;;28.67;20.30;;;;;;;19.76;83.15;101631.56;5006679;28;20116;-65
2022/09/12 07:40:44;;;;;;;25.25;18.48;;;;;;;19.94;82.22;101622.44;5009103;28;20041;-66
2022/09/12 07:43:10;;;;;;;27.80;20.38;;;;;;;19.75;82.94;101627.19;5007664;28;20029;-68
2022/09/12 07:45:35;;;;;;;24.88;18.13;;;;;;;19.92;82.81;101628.81;5007744;28;20109;-67
2022/09/12 07:48:01;;;;;;;25.40;19.42;;;;;;;20.07;82.44;101627.91;5008898;28;20026;-67
2022/09/12 07:50:38;;;;;;;27.38;20.25;;;;;;;20.09;82.47;101622.47;5124634;27;20386;-67
2022/09/12 07:53:04;;;;;;;26.50;18.88;;;;;;;20.12;82.60;101633.00;5112768;27;20031;-68
2022/09/12 07:55:29;;;;;;;27.23;18.63;;;;;;;20.25;82.52;101630.41;5107901;28;20027;-66
2022/09/12 07:57:55;;;;;;;35.28;20.88;;;;;;;20.27;82.51;101622.28;5125424;27;20076;-66
2022/09/12 08:00:20;;;;;;;30.55;20.13;;;;;;;20.08;83.01;101636.81;5117966;27;20019;-67
2022/09/12 08:02:50;;;;;;;28.38;19.90;;;;;;;20.26;82.19;101636.63;5126514;27;20458;-66
2022/09/12 08:05:16;;;;;;;30.30;20.17;;;;;;;20.33;82.36;101637.94;5125339;27;20028;-65
2022/09/12 08:07:41;;;;;;;27.20;18.38;;;;;;;20.45;82.63;101629.16;5124485;27;20431;-65
2022/09/12 08:10:07;;;;;;;25.85;18.92;;;;;;;20.40;82.59;101622.34;5126222;28;20028;-66
2022/09/12 08:12:33;;;;;;;27.35;18.38;;;;;;;20.63;81.87;101631.59;5124932;27;20019;-64
2022/09/12 08:14:59;;;;;;;30.40;20.75;;;;;;;20.55;81.02;101637.44;5125074;27;20047;-66
2022/09/12 08:17:24;;;;;;;30.75;18.15;;;;;;;20.66;80.52;101627.88;5125916;27;20080;-66
2022/09/12 08:19:50;;;;;;;24.23;17.33;;;;;;;20.87;79.88;101622.94;5124485;27;20457;-65
2022/09/12 08:22:15;;;;;;;26.35;18.25;;;;;;;20.98;79.84;101630.28;5125410;27;20034;-66
2022/09/12 08:24:41;;;;;;;27.00;18.23;;;;;;;21.07;78.97;101626.16;5125345;28;20026;-66
2022/09/12 08:27:06;;;;;;;20.63;15.48;;;;;;;21.13;78.97;101627.56;5125067;27;20383;-66
2022/09/12 08:29:32;;;;;;;24.67;16.60;;;;;;;21.27;78.12;101631.97;5103152;28;20212;-67
2022/09/12 08:31:58;;;;;;;22.42;17.00;;;;;;;21.44;77.50;101623.69;5104663;28;20359;-65
2022/09/12 08:34:23;;;;;;;26.25;17.75;;;;;;;21.37;78.89;101622.34;5103358;28;20411;-66
2022/09/12 08:36:49;;;;;;;23.98;16.48;;;;;;;21.51;77.74;101623.25;5104901;28;20056;-65
2022/09/12 08:39:15;;;;;;;27.42;16.05;;;;;;;21.56;77.17;101624.66;5104941;28;20024;-65
2022/09/12 08:41:44;;;;;;;23.25;15.90;;;;;;;21.76;76.56;101633.16;5105705;27;20090;-66
2022/09/12 08:44:36;;;;;;;15.38;12.40;;;;;;;21.74;76.70;101629.72;5102649;27;20036;-66
2022/09/12 08:47:20;;;;;;;22.98;14.77;;;;;;;21.87;76.17;101635.13;5104200;28;20032;-67
2022/09/12 08:50:07;;;;;;;19.02;12.15;;;;;;;21.88;75.26;101630.63;5102669;28;20048;-65
2022/09/12 08:52:40;;;;;;;15.93;11.73;;;;;;;21.98;73.82;101626.31;5110177;27;20035;-73
2022/09/12 08:55:19;;;;;;;16.30;11.60;;;;;;;22.02;74.24;101621.59;5122528;28;20092;-73
2022/09/12 08:57:44;;;;;;;16.88;10.13;;;;;;;22.12;73.80;101622.66;5118414;27;20027;-74
2022/09/12 09:00:12;;;;;;;12.68;9.85;;;;;;;22.03;73.08;101618.78;5121449;27;20023;-74
2022/09/12 09:02:44;;;;;;;10.70;8.87;;;;;;;22.22;71.62;101626.38;5108630;28;20020;-68
2022/09/12 09:05:22;;;;;;;18.15;9.68;;;;;;;22.20;72.17;101619.41;5107852;28;20481;-75
2022/09/12 09:08:02;;;;;;;22.42;10.57;;;;;;;22.16;72.56;101620.63;5108943;28;20378;-77
2022/09/12 09:10:37;;;;;;;13.90;9.88;;;;;;;22.23;72.79;101624.56;5107236;28;20402;-76
2022/09/12 09:16:10;;;;;;;14.43;9.52;;;;;;;22.50;72.17;101614.63;5106146;28;20680;-74
2022/09/12 09:18:36;;;;;;;12.48;8.93;;;;;;;22.42;72.34;101608.00;5107326;28;20103;-73
2022/09/12 09:21:08;;;;;;;13.98;8.85;;;;;;;22.58;71.02;101606.91;5108658;28;20020;-72
2022/09/12 09:23:40;;;;;;;12.13;8.13;;;;;;;22.69;70.61;101606.97;5105848;28;20032;-72
2022/09/12 09:26:13;;;;;;;10.75;7.95;;;;;;;22.78;70.56;101607.28;5104653;28;20020;-68
2022/09/12 09:28:43;;;;;;;12.25;8.07;;;;;;;22.91;70.65;101607.22;5108722;28;20032;-72
2022/09/12 09:31:17;;;;;;;13.73;7.30;;;;;;;23.06;70.12;101599.84;5105537;28;20020;-73
2022/09/12 09:33:43;;;;;;;9.65;7.55;;;;;;;23.05;69.86;101598.09;5109769;28;20466;-73
2022/09/12 09:36:31;;;;;;;10.63;6.97;;;;;;;23.15;69.82;101595.59;5107472;28;20334;-74
2022/09/12 09:39:05;;;;;;;11.07;7.05;;;;;;;23.30;68.78;101585.50;5100300;28;20037;-72
2022/09/12 09:41:33;;;;;;;7.63;5.97;;;;;;;23.29;68.74;101589.16;5108022;28;20039;-70
2022/09/12 09:43:59;;;;;;;7.53;6.13;;;;;;;23.41;68.12;101582.88;5109243;28;20065;-74
2022/09/12 09:46:25;;;;;;;9.50;5.85;;;;;;;23.50;67.82;101569.69;5108859;27;20016;-74
2022/09/12 09:48:52;;;;;;;12.05;6.43;;;;;;;23.55;68.20;101568.34;5102454;28;20067;-75
2022/09/12 09:51:23;;;;;;;10.50;6.85;;;;;;;23.42;68.05;101564.91;5107321;28;20094;-74
2022/09/12 09:53:52;;;;;;;11.15;5.80;;;;;;;23.69;67.37;101559.19;5108097;28;20038;-70
2022/09/12 09:56:28;;;;;;;8.45;6.68;;;;;;;23.67;67.81;101558.47;5109886;28;20030;-69
2022/09/12 09:58:53;;;;;;;8.63;5.20;;;;;;;23.92;68.55;101556.50;5108852;28;20514;-72
2022/09/12 10:01:19;;;;;;;8.82;6.80;;;;;;;23.89;67.18;101555.88;5109171;28;20114;-72
2022/09/12 10:03:48;;;;;;;8.70;5.40;;;;;;;24.02;66.95;101559.31;5107918;28;20020;-67
2022/09/12 10:06:19;;;;;;;5.50;4.80;;;;;;;23.84;66.72;101553.59;5108953;28;20020;-73
2022/09/12 10:08:45;;;;;;;4.80;3.65;;;;;;;23.87;65.39;101544.41;5104231;28;20304;-72
2022/09/12 10:11:13;;;;;;;5.38;3.45;;;;;;;24.06;63.63;101544.66;5108693;28;20028;-71
2022/09/12 10:13:41;;;;;;;5.00;3.05;;;;;;;24.04;63.53;101541.22;5105376;28;20051;-73
2022/09/12 10:16:19;;;;;;;3.70;3.40;;;;;;;24.03;63.47;101544.91;5109263;28;20477;-75
2022/09/12 10:18:45;;;;;;;5.63;3.22;;;;;;;24.33;64.05;101545.25;5103892;28;20083;-72
2022/09/12 10:21:30;;;;;;;3.95;3.55;;;;;;;24.25;62.95;101536.91;5109007;28;20047;-73
2022/09/12 10:24:02;;;;;;;5.55;3.50;;;;;;;24.36;62.21;101545.00;5106597;28;20039;-71
2022/09/12 10:26:32;;;;;;;5.95;3.78;;;;;;;24.41;61.40;101542.75;5109330;28;20035;-75
2022/09/12 10:29:03;;;;;;;3.65;3.30;;;;;;;24.27;62.46;101537.66;5129930;27;20046;-64
2022/09/12 10:31:40;;;;;;;4.78;3.53;;;;;;;24.29;62.43;101533.03;5099852;28;20028;-72
2022/09/12 10:34:19;;;;;;;4.35;3.40;;;;;;;24.40;61.36;101522.22;5080923;28;20047;-74
2022/09/12 10:36:44;;;;;;;;;;;;;;;24.25;63.06;101515.38;5103467;28;20042;-73
2022/09/12 10:39:16;;;;;;;8.30;3.60;;;;;;;24.39;62.09;101522.34;5105217;28;20342;-73
2022/09/12 10:41:41;;;;;;;9.02;3.22;;;;;;;24.58;62.73;101527.91;5101634;28;20312;-73
2022/09/12 10:44:15;;;;;;;4.75;3.78;;;;;;;24.83;60.47;101523.16;5104097;28;20028;-74
2022/09/12 10:46:41;;;;;;;4.20;2.95;;;;;;;24.74;61.87;101527.47;5108347;28;20463;-71
2022/09/12 10:49:22;;;;;;;5.90;3.53;;;;;;;24.97;59.94;101530.09;5103285;28;20115;-70
2022/09/12 10:51:48;;;;;;;3.55;3.17;;;;;;;25.13;58.07;101534.16;5105142;28;20031;-71
2022/09/12 10:54:16;;;;;;;4.60;3.45;;;;;;;25.21;57.33;101526.28;5104508;28;20020;-72
2022/09/12 10:56:54;;;;;;;4.13;3.72;;;;;;;25.17;56.89;101522.16;5093524;28;20031;-70
2022/09/12 10:59:55;;;;;;;4.05;3.65;;;;;;;25.26;56.67;101522.34;5106088;28;20458;-67
2022/09/12 11:02:29;;;;;;;4.82;2.60;;;;;;;25.71;55.93;101524.72;5105605;28;20043;-72
2022/09/12 11:04:57;;;;;;;6.45;3.45;;;;;;;25.64;57.11;101533.50;5104456;28;20023;-67
2022/09/12 11:07:45;;;;;;;4.70;3.58;;;;;;;25.85;55.78;101519.94;5105514;28;20039;-71
2022/09/12 11:10:30;;;;;;;5.97;3.20;;;;;;;25.99;54.30;101521.41;5101944;28;20031;-66
2022/09/12 11:13:01;;;;;;;5.40;3.90;;;;;;;26.00;55.18;101525.81;5101761;28;20039;-73
2022/09/12 11:15:30;;;;;;;6.03;3.72;;;;;;;25.94;54.17;101531.75;5107742;28;20020;-66
2022/09/12 11:18:02;;;;;;;5.15;3.75;;;;;;;26.04;55.12;101523.72;5101806;28;20019;-71
2022/09/12 11:20:50;;;;;;;4.00;3.47;;;;;;;25.95;55.77;101520.00;5107361;28;20038;-71
2022/09/12 11:23:16;;;;;;;4.88;3.83;;;;;;;25.93;55.32;101511.16;5109213;28;20102;-63
2022/09/12 11:26:06;;;;;;;4.93;3.43;;;;;;;26.17;55.85;101505.41;5107984;28;20106;-62
2022/09/12 11:28:49;;;;;;;6.90;3.92;;;;;;;26.41;52.95;101504.19;5106893;28;20755;-66